Time;durP1;ratioP1;P1;durP2;ratioP2;P2;SDS_P1;SDS_P2;PMS_P1;PMS_P2;Temp;Humidity;BMP_temperature;BMP_pressure;BME280_temperature;BME280_humidity;BME280_pressure;Samples;Min_cycle;Max_cycle;Signal;HPM_P1;HPM_P2
2022/01/12 00:00:18;;;;;;;;;;;;;;;;;;5073820;28;20286;-77
2022/01/12 00:02:44;;;;;;;;;;;;;;;;;;5078046;28;19917;-78
2022/01/12 00:05:09;;;;;;;;;;;;;;;;;;5075666;28;19916;-78
2022/01/12 00:07:34;;;;;;;;;;;;;;;;;;5073539;28;19917;-78
2022/01/12 00:10:00;;;;;;;;;;;;;;;;;;5073195;28;20254;-77
2022/01/12 00:12:26;;;;;;;;;;;;;;;;;;5074753;28;19916;-78
2022/01/12 00:14:52;;;;;;;;;;;;;;;;;;5074786;28;19946;-78
2022/01/12 00:17:17;;;;;;;;;;;;;;;;;;5074628;28;20353;-78
2022/01/12 00:19:42;;;;;;;;;;;;;;;;;;5074481;28;19917;-77
2022/01/12 00:22:08;;;;;;;;;;;;;;;;;;5057081;28;20306;-79
2022/01/12 00:35:31;;;;;;;;;;;;;;;;;;5074274;28;19923;-78
2022/01/12 00:37:56;;;;;;;;;;;;;;;;;;5074366;28;19916;-78
2022/01/12 00:40:21;;;;;;;;;;;;;;;;;;5073366;28;20031;-77
2022/01/12 00:42:46;;;;;;;;;;;;;;;;;;5073222;28;20382;-78
2022/01/12 00:45:12;;;;;;;;;;;;;;;;;;5078275;28;20261;-77
2022/01/12 00:47:37;;;;;;;;;;;;;;;;;;5080540;28;19916;-77
2022/01/12 00:50:03;;;;;;;;;;;;;;;;;;5078005;28;19916;-78
2022/01/12 00:52:28;;;;;;;;;;;;;;;;;;5077962;28;19917;-78
2022/01/12 00:54:54;;;;;;;;;;;;;;;;;;5076831;28;20310;-77
2022/01/12 00:57:19;;;;;;;;;;;;;;;;;;5077756;28;19921;-78
2022/01/12 00:59:44;;;;;;;;;;;;;;;;;;5077780;28;20292;-75
2022/01/12 01:02:10;;;;;;;;;;;;;;;;;;5076508;28;19916;-78
2022/01/12 01:04:35;;;;;;;;;;;;;;;;;;5064340;28;19917;-78
2022/01/12 01:07:00;;;;;;;;;;;;;;;;;;5078011;28;20007;-78
2022/01/12 01:09:26;;;;;;;;;;;;;;;;;;5059992;28;19946;-78
2022/01/12 01:11:52;;;;;;;;;;;;;;;;;;5077551;28;19952;-78
2022/01/12 01:14:32;;;;;;;;;;;;;;;;;;5077687;28;19917;-77
2022/01/12 01:27:53;;;;;;;;;;;;;;;;;;5078704;28;19923;-79
2022/01/12 01:30:19;;;;;;;;;;;;;;;;;;5077235;28;20330;-78
2022/01/12 01:32:44;;;;;;;;;;;;;;;;;;5077113;28;19916;-78
2022/01/12 01:35:10;;;;;;;;;;;;;;;;;;5059330;28;19971;-78
2022/01/12 01:37:35;;;;;;;;;;;;;;;;;;5076961;28;19951;-78
2022/01/12 01:40:01;;;;;;;;;;;;;;;;;;5059146;28;19912;-77
2022/01/12 01:42:41;;;;;;;;;;;;;;;;;;5076948;28;20014;-77
2022/01/12 01:53:19;;;;;;;;;;;;;;;;;;5076628;28;19943;-77
2022/01/12 01:55:45;;;;;;;;;;;;;;;;;;5058819;28;19920;-76
2022/01/12 01:58:11;;;;;;;;;;;;;;;;;;5076729;28;20383;-76
2022/01/12 02:00:37;;;;;;;;;;;;;;;;;;5076591;28;19913;-76
2022/01/12 02:03:02;;;;;;;;;;;;;;;;;;5076584;28;19939;-75
2022/01/12 02:05:28;;;;;;;;;;;;;;;;;;5076563;28;20334;-76
2022/01/12 02:07:53;;;;;;;;;;;;;;;;;;5076474;28;19912;-76
2022/01/12 02:10:18;;;;;;;;;;;;;;;;;;5059930;28;19924;-76
2022/01/12 02:12:44;;;;;;;;;;;;;;;;;;5076345;28;20381;-75
2022/01/12 02:15:13;;;;;;;;;;;;;;;;;;5076212;28;19916;-76
2022/01/12 02:17:51;;;;;;;;;;;;;;;;;;5076244;28;19982;-76
2022/01/12 02:35:13;;;;;;;;;;;;;;;;;;5075617;28;20318;-75
2022/01/12 02:42:05;;;;;;;;;;;;;;;;;;5075868;28;20261;-76
2022/01/12 02:55:26;;;;;;;;;;;;;;;;;;5075368;28;19923;-77
2022/01/12 02:57:52;;;;;;;;;;;;;;;;;;5075942;28;19916;-76
2022/01/12 03:00:19;;;;;;;;;;;;;;;;;;5075531;28;19959;-77
2022/01/12 03:02:50;;;;;;;;;;;;;;;;;;5075481;28;19948;-77
2022/01/12 03:05:32;;;;;;;;;;;;;;;;;;5073867;28;19917;-77
2022/01/12 03:08:02;;;;;;;;;;;;;;;;;;5075062;28;19918;-78
2022/01/12 03:10:28;;;;;;;;;;;;;;;;;;5063522;28;19923;-78
2022/01/12 03:12:53;;;;;;;;;;;;;;;;;;5079503;28;20304;-77
2022/01/12 03:15:18;;;;;;;;;;;;;;;;;;5073953;28;19916;-78
2022/01/12 03:17:44;;;;;;;;;;;;;;;;;;5075292;28;20318;-78
2022/01/12 03:20:09;;;;;;;;;;;;;;;;;;5057208;28;19919;-77
2022/01/12 03:22:35;;;;;;;;;;;;;;;;;;5041088;28;19916;-78
2022/01/12 03:25:00;;;;;;;;;;;;;;;;;;5075172;28;19959;-77
2022/01/12 03:27:26;;;;;;;;;;;;;;;;;;5075211;28;19934;-77
2022/01/12 03:29:55;;;;;;;;;;;;;;;;;;5059069;28;19923;-76
2022/01/12 03:32:27;;;;;;;;;;;;;;;;;;5079740;28;19912;-77
2022/01/12 03:35:05;;;;;;;;;;;;;;;;;;5058232;28;19917;-77
2022/01/12 04:10:29;;;;;;;;;;;;;;;;;;5076207;28;19942;-77
2022/01/12 04:12:55;;;;;;;;;;;;;;;;;;5056747;28;20011;-77
2022/01/12 04:15:20;;;;;;;;;;;;;;;;;;5074585;28;19924;-78
2022/01/12 04:17:46;;;;;;;;;;;;;;;;;;5073025;28;19916;-77
2022/01/12 04:20:11;;;;;;;;;;;;;;;;;;5058574;28;20330;-77
2022/01/12 04:25:23;;;;;;;;;;;;;;;;;;5063278;28;19938;-77
2022/01/12 04:27:48;;;;;;;;;;;;;;;;;;5081649;28;19928;-77
2022/01/12 04:30:14;;;;;;;;;;;;;;;;;;5079319;28;20322;-77
2022/01/12 04:32:42;;;;;;;;;;;;;;;;;;5078114;28;19923;-77
2022/01/12 04:35:07;;;;;;;;;;;;;;;;;;5060682;28;19916;-77
2022/01/12 04:37:32;;;;;;;;;;;;;;;;;;5078141;28;20023;-78
2022/01/12 04:39:58;;;;;;;;;;;;;;;;;;5078216;28;19912;-77
2022/01/12 04:42:23;;;;;;;;;;;;;;;;;;5060716;28;19923;-77
2022/01/12 04:44:58;;;;;;;;;;;;;;;;;;5060100;28;19913;-77
2022/01/12 04:47:40;;;;;;;;;;;;;;;;;;5076817;28;20007;-76
2022/01/12 04:50:05;;;;;;;;;;;;;;;;;;5063176;28;19916;-77
2022/01/12 04:52:31;;;;;;;;;;;;;;;;;;5043666;28;20057;-77
2022/01/12 04:54:56;;;;;;;;;;;;;;;;;;5078110;28;19979;-77
2022/01/12 04:57:21;;;;;;;;;;;;;;;;;;5078326;28;19921;-77
2022/01/12 05:00:03;;;;;;;;;;;;;;;;;;5078338;28;19916;-77
2022/01/12 05:08:12;;;;;;;;;;;;;;;;;;5077674;28;19941;-76
2022/01/12 05:13:23;;;;;;;;;;;;;;;;;;5077625;28;19947;-77
2022/01/12 05:15:49;;;;;;;;;;;;;;;;;;5077179;28;19917;-77
2022/01/12 05:18:14;;;;;;;;;;;;;;;;;;5077554;28;19916;-77
2022/01/12 05:20:39;;;;;;;;;;;;;;;;;;5077684;28;19927;-77
2022/01/12 05:23:05;;;;;;;;;;;;;;;;;;5080926;28;19916;-77
2022/01/12 05:25:30;;;;;;;;;;;;;;;;;;5084159;28;19998;-77
2022/01/12 05:27:55;;;;;;;;;;;;;;;;;;5077142;28;19913;-78
2022/01/12 05:30:21;;;;;;;;;;;;;;;;;;5058602;28;19982;-79
2022/01/12 05:32:47;;;;;;;;;;;;;;;;;;5059350;28;19912;-79
2022/01/12 05:35:14;;;;;;;;;;;;;;;;;;5059192;28;19955;-78
2022/01/12 05:37:40;;;;;;;;;;;;;;;;;;5058944;28;20041;-79
2022/01/12 05:40:06;;;;;;;;;;;;;;;;;;5059117;28;20003;-78
2022/01/12 05:42:31;;;;;;;;;;;;;;;;;;5059251;28;20004;-78
2022/01/12 05:44:56;;;;;;;;;;;;;;;;;;5066044;28;19912;-77
2022/01/12 05:50:02;;;;;;;;;;;;;;;;;;5073015;28;19931;-79
2022/01/12 05:52:28;;;;;;;;;;;;;;;;;;5061293;28;19913;-79
2022/01/12 05:54:53;;;;;;;;;;;;;;;;;;5079132;28;19924;-79
2022/01/12 05:57:18;;;;;;;;;;;;;;;;;;5090341;28;19928;-77
2022/01/12 05:59:44;;;;;;;;;;;;;;;;;;5091233;28;19920;-77
2022/01/12 06:02:14;;;;;;;;;;;;;;;;;;5089637;28;20068;-78
2022/01/12 06:04:41;;;;;;;;;;;;;;;;;;5088235;28;20360;-76
2022/01/12 06:07:06;;;;;;;;;;;;;;;;;;5095602;28;19923;-78
2022/01/12 06:09:32;;;;;;;;;;;;;;;;;;5108612;28;19949;-77
2022/01/12 06:11:57;;;;;;;;;;;;;;;;;;5111794;28;20329;-79
2022/01/12 06:14:23;;;;;;;;;;;;;;;;;;5111284;28;20026;-77
2022/01/12 06:16:50;;;;;;;;;;;;;;;;;;5110721;28;19939;-78
2022/01/12 06:19:16;;;;;;;;;;;;;;;;;;5094399;28;19924;-83
2022/01/12 06:21:41;;;;;;;;;;;;;;;;;;5075398;28;19923;-77
2022/01/12 06:24:07;;;;;;;;;;;;;;;;;;5091456;28;19916;-78
2022/01/12 06:26:32;;;;;;;;;;;;;;;;;;5091323;28;19920;-78
2022/01/12 06:29:42;;;;;;;;;;;;;;;;;;5090505;28;19965;-77
2022/01/12 06:31:51;;;;;;;;;;;;;;;;;;5089378;28;19916;-76
2022/01/12 06:34:17;;;;;;;;;;;;;;;;;;5092127;28;20290;-76
2022/01/12 06:36:42;;;;;;;;;;;;;;;;;;5094570;28;19930;-76
2022/01/12 06:39:09;;;;;;;;;;;;;;;;;;5094789;28;19974;-79
2022/01/12 06:41:35;;;;;;;;;;;;;;;;;;5098365;28;19916;-77
2022/01/12 06:44:00;;;;;;;;;;;;;;;;;;5095521;28;19950;-77
2022/01/12 06:46:35;;;;;;;;;;;;;;;;;;5091681;28;19928;-78
2022/01/12 06:49:01;;;;;;;;;;;;;;;;;;5091781;28;19923;-75
2022/01/12 06:51:26;;;;;;;;;;;;;;;;;;5093477;28;20370;-76
2022/01/12 06:53:54;;;;;;;;;;;;;;;;;;5091276;28;19964;-80
2022/01/12 06:56:20;;;;;;;;;;;;;;;;;;5092639;28;19928;-76
2022/01/12 06:58:45;;;;;;;;;;;;;;;;;;5092864;28;19923;-75
2022/01/12 07:01:10;;;;;;;;;;;;;;;;;;5095953;28;19923;-78
2022/01/12 07:03:36;;;;;;;;;;;;;;;;;;5094051;28;19916;-77
2022/01/12 07:06:01;;;;;;;;;;;;;;;;;;5074849;28;19916;-78
2022/01/12 07:08:27;;;;;;;;;;;;;;;;;;5093179;28;19923;-80
2022/01/12 07:10:52;;;;;;;;;;;;;;;;;;5093374;28;19958;-78
2022/01/12 07:13:17;;;;;;;;;;;;;;;;;;5093101;28;20257;-79
2022/01/12 07:15:43;;;;;;;;;;;;;;;;;;5076167;28;19958;-77
2022/01/12 07:18:08;;;;;;;;;;;;;;;;;;5093041;28;19916;-78
2022/01/12 07:20:33;;;;;;;;;;;;;;;;;;5105517;28;19920;-77
2022/01/12 07:22:59;;;;;;;;;;;;;;;;;;5099248;28;19916;-80
2022/01/12 07:25:24;;;;;;;;;;;;;;;;;;5088016;28;20333;-79
2022/01/12 07:27:50;;;;;;;;;;;;;;;;;;5076910;28;20011;-79
2022/01/12 07:30:15;;;;;;;;;;;;;;;;;;5076853;28;19975;-80
2022/01/12 07:32:40;;;;;;;;;;;;;;;;;;5076917;28;19916;-77
2022/01/12 07:35:06;;;;;;;;;;;;;;;;;;5094499;28;20011;-75
2022/01/12 07:37:31;;;;;;;;;;;;;;;;;;5075479;28;19943;-79
2022/01/12 07:39:56;;;;;;;;;;;;;;;;;;5079807;28;19927;-78
2022/01/12 07:42:22;;;;;;;;;;;;;;;;;;5101171;28;19978;-77
2022/01/12 07:44:47;;;;;;;;;;;;;;;;;;5093575;28;19923;-80
2022/01/12 07:47:13;;;;;;;;;;;;;;;;;;5084132;28;20080;-79
2022/01/12 07:49:38;;;;;;;;;;;;;;;;;;5099672;28;19973;-80
2022/01/12 07:52:04;;;;;;;;;;;;;;;;;;5075180;28;20377;-80
2022/01/12 07:54:30;;;;;;;;;;;;;;;;;;5067408;28;19917;-76
2022/01/12 07:56:55;;;;;;;;;;;;;;;;;;5082280;28;19928;-76
2022/01/12 07:59:20;;;;;;;;;;;;;;;;;;5074044;28;19946;-77
2022/01/12 08:01:46;;;;;;;;;;;;;;;;;;5090692;28;20329;-75
2022/01/12 08:04:11;;;;;;;;;;;;;;;;;;5099731;28;19982;-79
2022/01/12 08:06:36;;;;;;;;;;;;;;;;;;5102786;28;19927;-80
2022/01/12 08:09:02;;;;;;;;;;;;;;;;;;5101641;28;19920;-77
2022/01/12 08:11:29;;;;;;;;;;;;;;;;;;5102933;28;19928;-78
2022/01/12 08:13:54;;;;;;;;;;;;;;;;;;5103638;28;19919;-79
2022/01/12 08:16:20;;;;;;;;;;;;;;;;;;5099545;28;20421;-79
2022/01/12 08:18:45;;;;;;;;;;;;;;;;;;5100658;28;19930;-79
2022/01/12 08:21:11;;;;;;;;;;;;;;;;;;5105493;28;19924;-76
2022/01/12 08:23:36;;;;;;;;;;;;;;;;;;5107047;28;19927;-78
2022/01/12 08:26:02;;;;;;;;;;;;;;;;;;5080762;28;19977;-75
2022/01/12 08:28:27;;;;;;;;;;;;;;;;;;5081266;28;21332;-79
2022/01/12 08:30:52;;;;;;;;;;;;;;;;;;5101753;28;19924;-79
2022/01/12 08:33:18;;;;;;;;;;;;;;;;;;5098972;28;20317;-76
2022/01/12 08:35:44;;;;;;;;;;;;;;;;;;5100185;28;20332;-76
2022/01/12 08:38:12;;;;;;;;;;;;;;;;;;5108714;28;20019;-77
2022/01/12 08:40:38;;;;;;;;;;;;;;;;;;5098440;28;19963;-77
2022/01/12 08:43:06;;;;;;;;;;;;;;;;;;5108986;28;19962;-76
2022/01/12 08:45:32;;;;;;;;;;;;;;;;;;5090240;28;19916;-76
2022/01/12 08:47:57;;;;;;;;;;;;;;;;;;5090783;28;20439;-77
2022/01/12 08:50:23;;;;;;;;;;;;;;;;;;5090047;28;19959;-77
2022/01/12 08:52:48;;;;;;;;;;;;;;;;;;5088647;28;19942;-75
2022/01/12 08:55:14;;;;;;;;;;;;;;;;;;5086178;28;19920;-77
2022/01/12 08:57:40;;;;;;;;;;;;;;;;;;5087015;28;20000;-77
2022/01/12 09:00:05;;;;;;;;;;;;;;;;;;5093216;28;19920;-74
2022/01/12 09:02:31;;;;;;;;;;;;;;;;;;5083046;28;19981;-75
2022/01/12 09:04:56;;;;;;;;;;;;;;;;;;5086621;28;19927;-76
2022/01/12 09:07:22;;;;;;;;;;;;;;;;;;5088165;28;20295;-75
2022/01/12 09:09:47;;;;;;;;;;;;;;;;;;5093817;28;19927;-77
2022/01/12 09:12:12;;;;;;;;;;;;;;;;;;5096466;28;19917;-76
2022/01/12 09:14:38;;;;;;;;;;;;;;;;;;5096301;28;19939;-75
2022/01/12 09:17:03;;;;;;;;;;;;;;;;;;5093383;28;19916;-76
2022/01/12 09:19:29;;;;;;;;;;;;;;;;;;5097613;28;19982;-76
2022/01/12 09:21:54;;;;;;;;;;;;;;;;;;5092375;28;20066;-76
2022/01/12 09:24:20;;;;;;;;;;;;;;;;;;5093712;28;19927;-77
2022/01/12 09:26:45;;;;;;;;;;;;;;;;;;5094096;28;19920;-78
2022/01/12 09:29:11;;;;;;;;;;;;;;;;;;5089585;28;19928;-75
2022/01/12 09:31:36;;;;;;;;;;;;;;;;;;5094916;28;19955;-76
2022/01/12 09:34:03;;;;;;;;;;;;;;;;;;5096010;28;19920;-75
2022/01/12 09:36:29;;;;;;;;;;;;;;;;;;5074119;28;19966;-77
2022/01/12 09:38:54;;;;;;;;;;;;;;;;;;5101206;28;19928;-75
2022/01/12 09:41:20;;;;;;;;;;;;;;;;;;5092245;28;19921;-75
2022/01/12 09:43:49;;;;;;;;;;;;;;;;;;5095332;28;20313;-75
2022/01/12 09:46:15;;;;;;;;;;;;;;;;;;5080471;28;20000;-75
2022/01/12 09:48:40;;;;;;;;;;;;;;;;;;5092373;28;20015;-77
2022/01/12 09:51:07;;;;;;;;;;;;;;;;;;5091572;28;20002;-76
2022/01/12 09:53:33;;;;;;;;;;;;;;;;;;5090767;28;20359;-78
2022/01/12 09:55:59;;;;;;;;;;;;;;;;;;5091212;28;20349;-74
2022/01/12 09:58:24;;;;;;;;;;;;;;;;;;5078821;28;19921;-78
2022/01/12 10:00:59;;;;;;;;;;;;;;;;;;5071835;28;20351;-77
2022/01/12 10:03:25;;;;;;;;;;;;;;;;;;5070694;28;19916;-79
2022/01/12 10:05:50;;;;;;;;;;;;;;;;;;5069853;28;19989;-77
2022/01/12 10:08:16;;;;;;;;;;;;;;;;;;5072049;28;19952;-80
2022/01/12 10:10:48;;;;;;;;;;;;;;;;;;5055814;28;19920;-75
2022/01/12 10:13:23;;;;;;;;;;;;;;;;;;5073692;28;19924;-78
2022/01/12 10:15:50;;;;;;;;;;;;;;;;;;5075472;28;19916;-76
2022/01/12 10:18:15;;;;;;;;;;;;;;;;;;5074601;28;20356;-78
2022/01/12 10:20:44;;;;;;;;;;;;;;;;;;5074221;28;19964;-77
2022/01/12 10:23:19;;;;;;;;;;;;;;;;;;5075183;28;19916;-79
2022/01/12 10:25:48;;;;;;;;;;;;;;;;;;5075037;28;20257;-76
2022/01/12 10:28:20;;;;;;;;;;;;;;;;;;5075697;28;19924;-75
2022/01/12 10:30:52;;;;;;;;;;;;;;;;;;5074522;28;19938;-76
2022/01/12 10:33:18;;;;;;;;;;;;;;;;;;5075658;28;19966;-77
2022/01/12 10:35:43;;;;;;;;;;;;;;;;;;5075826;28;20371;-76
2022/01/12 10:38:10;;;;;;;;;;;;;;;;;;5078998;28;19916;-75
2022/01/12 10:40:45;;;;;;;;;;;;;;;;;;5074276;28;19916;-74
2022/01/12 10:43:26;;;;;;;;;;;;;;;;;;5089144;28;20270;-75
2022/01/12 10:45:54;;;;;;;;;;;;;;;;;;5085152;28;19993;-77
2022/01/12 10:48:23;;;;;;;;;;;;;;;;;;5094223;28;20006;-76
2022/01/12 10:51:05;;;;;;;;;;;;;;;;;;5056737;28;19920;-74
2022/01/12 10:53:33;;;;;;;;;;;;;;;;;;5069043;28;19923;-76
2022/01/12 10:56:08;;;;;;;;;;;;;;;;;;5076706;28;19920;-77
2022/01/12 10:58:33;;;;;;;;;;;;;;;;;;5096812;28;20050;-75
2022/01/12 11:00:59;;;;;;;;;;;;;;;;;;5092712;28;19970;-74
2022/01/12 11:03:24;;;;;;;;;;;;;;;;;;5092923;28;19939;-74
2022/01/12 11:05:50;;;;;;;;;;;;;;;;;;5092290;28;19955;-74
2022/01/12 11:08:17;;;;;;;;;;;;;;;;;;5093120;28;20027;-76
2022/01/12 11:10:43;;;;;;;;;;;;;;;;;;5093280;28;20356;-76
2022/01/12 11:13:08;;;;;;;;;;;;;;;;;;5091928;28;19916;-74
2022/01/12 11:15:34;;;;;;;;;;;;;;;;;;5092345;28;20238;-75
2022/01/12 11:17:59;;;;;;;;;;;;;;;;;;5096432;28;20485;-75
2022/01/12 11:20:26;;;;;;;;;;;;;;;;;;5093462;28;19974;-74
2022/01/12 11:23:00;;;;;;;;;;;;;;;;;;5093808;28;19920;-76
2022/01/12 11:25:29;;;;;;;;;;;;;;;;;;5094462;28;19965;-76
2022/01/12 11:28:14;;;;;;;;;;;;;;;;;;5094079;28;19916;-75
2022/01/12 11:31:00;;;;;;;;;;;;;;;;;;5092727;28;19920;-75
2022/01/12 11:33:31;;;;;;;;;;;;;;;;;;5088982;28;19916;-76
2022/01/12 11:36:20;;;;;;;;;;;;;;;;;;5091411;28;19927;-74
2022/01/12 11:39:06;;;;;;;;;;;;;;;;;;5054215;28;19927;-77
2022/01/12 11:41:35;;;;;;;;;;;;;;;;;;5070951;28;20342;-78
2022/01/12 11:44:03;;;;;;;;;;;;;;;;;;5079049;28;19977;-74
2022/01/12 11:46:49;;;;;;;;;;;;;;;;;;5090011;28;19916;-75
2022/01/12 11:49:25;;;;;;;;;;;;;;;;;;5078408;28;19916;-75
2022/01/12 11:51:50;;;;;;;;;;;;;;;;;;5070502;28;19917;-75
2022/01/12 11:54:19;;;;;;;;;;;;;;;;;;5071629;28;19943;-75
2022/01/12 11:56:54;;;;;;;;;;;;;;;;;;5074793;28;19927;-75
2022/01/12 11:59:20;;;;;;;;;;;;;;;;;;5088041;28;20000;-73
2022/01/12 12:01:52;;;;;;;;;;;;;;;;;;5090623;28;20498;-74
2022/01/12 12:04:22;;;;;;;;;;;;;;;;;;5089941;28;19916;-74
2022/01/12 12:06:47;;;;;;;;;;;;;;;;;;5089678;28;19923;-75
2022/01/12 12:09:18;;;;;;;;;;;;;;;;;;5090095;28;20261;-74
2022/01/12 12:11:48;;;;;;;;;;;;;;;;;;5090576;28;19917;-74
2022/01/12 12:14:14;;;;;;;;;;;;;;;;;;5092249;28;19923;-75
2022/01/12 12:16:40;;;;;;;;;;;;;;;;;;5095783;28;20341;-77
2022/01/12 12:19:05;;;;;;;;;;;;;;;;;;5091791;28;19943;-78
2022/01/12 12:21:31;;;;;;;;;;;;;;;;;;5071628;28;19916;-72
2022/01/12 12:24:16;;;;;;;;;;;;;;;;;;5089877;28;19916;-74
2022/01/12 12:26:49;;;;;;;;;;;;;;;;;;5091990;28;19912;-74
2022/01/12 12:29:17;;;;;;;;;;;;;;;;;;5093783;28;19947;-76
2022/01/12 12:31:45;;;;;;;;;;;;;;;;;;5091345;28;19922;-77
2022/01/12 12:34:10;;;;;;;;;;;;;;;;;;5092110;28;19974;-75
2022/01/12 12:36:36;;;;;;;;;;;;;;;;;;5093114;28;19945;-76
2022/01/12 12:39:05;;;;;;;;;;;;;;;;;;5092934;28;20011;-77
2022/01/12 12:41:50;;;;;;;;;;;;;;;;;;5093690;28;19916;-75
2022/01/12 12:44:38;;;;;;;;;;;;;;;;;;5094608;28;20217;-75
2022/01/12 12:47:04;;;;;;;;;;;;;;;;;;5095897;28;20265;-76
2022/01/12 12:49:30;;;;;;;;;;;;;;;;;;5095380;28;19916;-76
2022/01/12 12:52:01;;;;;;;;;;;;;;;;;;5094974;28;19916;-74
2022/01/12 12:54:27;;;;;;;;;;;;;;;;;;5078054;28;19923;-75
2022/01/12 12:56:58;;;;;;;;;;;;;;;;;;5101440;28;20026;-74
2022/01/12 12:59:24;;;;;;;;;;;;;;;;;;5078392;28;19920;-78
2022/01/12 13:01:49;;;;;;;;;;;;;;;;;;5061948;28;19923;-77
2022/01/12 13:04:19;;;;;;;;;;;;;;;;;;5097061;28;19916;-74
2022/01/12 13:06:46;;;;;;;;;;;;;;;;;;5079232;28;20280;-74
2022/01/12 13:09:13;;;;;;;;;;;;;;;;;;5098073;28;19916;-76
2022/01/12 13:11:39;;;;;;;;;;;;;;;;;;5081198;28;19916;-77
2022/01/12 13:14:05;;;;;;;;;;;;;;;;;;5098276;28;19916;-75
2022/01/12 13:16:31;;;;;;;;;;;;;;;;;;5099453;28;19923;-74
2022/01/12 13:19:05;;;;;;;;;;;;;;;;;;5082671;28;19920;-75
2022/01/12 13:21:31;;;;;;;;;;;;;;;;;;5083620;28;20250;-73
2022/01/12 13:23:56;;;;;;;;;;;;;;;;;;5099460;28;19916;-75
2022/01/12 13:26:22;;;;;;;;;;;;;;;;;;5098534;28;19923;-76
2022/01/12 13:28:48;;;;;;;;;;;;;;;;;;5098288;28;19923;-76
2022/01/12 13:31:15;;;;;;;;;;;;;;;;;;5079722;28;20010;-75
2022/01/12 13:33:41;;;;;;;;;;;;;;;;;;5097506;28;19916;-75
2022/01/12 13:36:16;;;;;;;;;;;;;;;;;;5081143;28;19923;-75
2022/01/12 13:38:42;;;;;;;;;;;;;;;;;;5063480;28;19916;-74
2022/01/12 13:41:11;;;;;;;;;;;;;;;;;;5097243;28;19919;-76
2022/01/12 13:43:37;;;;;;;;;;;;;;;;;;5079065;28;19916;-75
2022/01/12 13:46:11;;;;;;;;;;;;;;;;;;5062624;28;20010;-75
2022/01/12 13:48:36;;;;;;;;;;;;;;;;;;5080293;28;19916;-74
2022/01/12 13:51:03;;;;;;;;;;;;;;;;;;5097125;28;20252;-75
2022/01/12 13:53:36;;;;;;;;;;;;;;;;;;5079277;28;19916;-75
2022/01/12 13:56:03;;;;;;;;;;;;;;;;;;5081191;28;20400;-76
2022/01/12 13:58:28;;;;;;;;;;;;;;;;;;5098163;28;19920;-75
2022/01/12 14:01:05;;;;;;;;;;;;;;;;;;5095696;28;20390;-75
2022/01/12 14:03:32;;;;;;;;;;;;;;;;;;5096559;28;20007;-75
2022/01/12 14:05:59;;;;;;;;;;;;;;;;;;5079120;28;19916;-76
2022/01/12 14:08:41;;;;;;;;;;;;;;;;;;5095614;28;19924;-75
2022/01/12 14:11:07;;;;;;;;;;;;;;;;;;5095420;28;19916;-76
2022/01/12 14:13:33;;;;;;;;;;;;;;;;;;5095926;28;20358;-75
2022/01/12 14:16:05;;;;;;;;;;;;;;;;;;5094922;28;19916;-77
2022/01/12 14:18:31;;;;;;;;;;;;;;;;;;5084244;28;19923;-75
2022/01/12 14:20:59;;;;;;;;;;;;;;;;;;5096165;28;19912;-76
2022/01/12 14:23:24;;;;;;;;;;;;;;;;;;5095005;28;20007;-74
2022/01/12 14:25:50;;;;;;;;;;;;;;;;;;5095933;28;20388;-75
2022/01/12 14:28:16;;;;;;;;;;;;;;;;;;5096022;28;20307;-76
2022/01/12 14:30:42;;;;;;;;;;;;;;;;;;5095561;28;19955;-77
2022/01/12 14:33:07;;;;;;;;;;;;;;;;;;5096666;28;19947;-77
2022/01/12 14:35:33;;;;;;;;;;;;;;;;;;5096167;28;19916;-78
2022/01/12 14:37:58;;;;;;;;;;;;;;;;;;5096132;28;20364;-74
2022/01/12 14:40:23;;;;;;;;;;;;;;;;;;5098768;28;19922;-75
2022/01/12 14:42:51;;;;;;;;;;;;;;;;;;5095840;28;19916;-75
2022/01/12 14:45:19;;;;;;;;;;;;;;;;;;5094567;28;19941;-76
2022/01/12 14:47:44;;;;;;;;;;;;;;;;;;5095705;28;19916;-74
2022/01/12 14:50:09;;;;;;;;;;;;;;;;;;5089940;28;19923;-74
2022/01/12 14:52:35;;;;;;;;;;;;;;;;;;5074615;28;19921;-73
2022/01/12 14:55:00;;;;;;;;;;;;;;;;;;5114150;28;19916;-74
2022/01/12 14:57:26;;;;;;;;;;;;;;;;;;5114548;28;19977;-75
2022/01/12 14:59:51;;;;;;;;;;;;;;;;;;5115461;28;20108;-74
2022/01/12 15:02:16;;;;;;;;;;;;;;;;;;5117753;28;19916;-76
2022/01/12 15:04:42;;;;;;;;;;;;;;;;;;5114568;28;19916;-76
2022/01/12 15:07:07;;;;;;;;;;;;;;;;;;5115974;28;20040;-76
2022/01/12 15:09:34;;;;;;;;;;;;;;;;;;5115815;28;19915;-75
2022/01/12 15:12:00;;;;;;;;;;;;;;;;;;5115690;28;19958;-74
2022/01/12 15:16:56;;;;;;;;;;;;;;;;;;5116129;28;19964;-77
2022/01/12 15:19:22;;;;;;;;;;;;;;;;;;5115563;28;19916;-78
2022/01/12 15:21:47;;;;;;;;;;;;;;;;;;5117124;28;20002;-77
2022/01/12 15:24:12;;;;;;;;;;;;;;;;;;5115344;28;19922;-79
2022/01/12 15:26:38;;;;;;;;;;;;;;;;;;5115596;28;19972;-77
2022/01/12 15:29:04;;;;;;;;;;;;;;;;;;5097140;28;20273;-75
2022/01/12 15:31:29;;;;;;;;;;;;;;;;;;5113067;28;19916;-74
2022/01/12 15:33:54;;;;;;;;;;;;;;;;;;5114102;28;19964;-76
2022/01/12 15:36:19;;;;;;;;;;;;;;;;;;5097423;28;20010;-75
2022/01/12 15:38:45;;;;;;;;;;;;;;;;;;5115059;28;20028;-77
2022/01/12 15:41:10;;;;;;;;;;;;;;;;;;5115251;28;19944;-77
2022/01/12 15:43:36;;;;;;;;;;;;;;;;;;5119543;28;19923;-76
2022/01/12 15:46:01;;;;;;;;;;;;;;;;;;5113873;28;19916;-75
2022/01/12 15:48:27;;;;;;;;;;;;;;;;;;5112662;28;19923;-74
2022/01/12 15:51:11;;;;;;;;;;;;;;;;;;5113272;28;19923;-76
2022/01/12 15:53:37;;;;;;;;;;;;;;;;;;5114171;28;19920;-76
2022/01/12 15:56:03;;;;;;;;;;;;;;;;;;5112991;28;19943;-75
2022/01/12 15:58:28;;;;;;;;;;;;;;;;;;5113278;28;19919;-76
2022/01/12 16:00:54;;;;;;;;;;;;;;;;;;5113483;28;20324;-76
2022/01/12 16:03:19;;;;;;;;;;;;;;;;;;5116012;28;19926;-78
2022/01/12 16:05:45;;;;;;;;;;;;;;;;;;5117020;28;19935;-76
2022/01/12 16:08:10;;;;;;;;;;;;;;;;;;5114939;28;19916;-76
2022/01/12 16:10:37;;;;;;;;;;;;;;;;;;5113807;28;19922;-77
2022/01/12 16:13:02;;;;;;;;;;;;;;;;;;5114185;28;19912;-76
2022/01/12 16:15:28;;;;;;;;;;;;;;;;;;5115928;28;19923;-76
2022/01/12 16:17:53;;;;;;;;;;;;;;;;;;5117859;28;20262;-77
2022/01/12 16:20:19;;;;;;;;;;;;;;;;;;5119051;28;19912;-74
2022/01/12 16:22:44;;;;;;;;;;;;;;;;;;5118856;27;20359;-76
2022/01/12 16:25:10;;;;;;;;;;;;;;;;;;5123900;28;19993;-75
2022/01/12 16:27:35;;;;;;;;;;;;;;;;;;5101208;28;19941;-76
2022/01/12 16:30:05;;;;;;;;;;;;;;;;;;5117978;28;19998;-76
2022/01/12 16:32:31;;;;;;;;;;;;;;;;;;5118448;28;20338;-75
2022/01/12 16:34:59;;;;;;;;;;;;;;;;;;5100791;28;19942;-75
2022/01/12 16:37:24;;;;;;;;;;;;;;;;;;5117350;28;19916;-78
2022/01/12 16:39:49;;;;;;;;;;;;;;;;;;5118912;28;20007;-76
2022/01/12 16:42:15;;;;;;;;;;;;;;;;;;5118720;28;19915;-77
2022/01/12 16:44:40;;;;;;;;;;;;;;;;;;5119038;28;19916;-77
2022/01/12 16:47:06;;;;;;;;;;;;;;;;;;5125936;28;20226;-77
2022/01/12 16:49:31;;;;;;;;;;;;;;;;;;5118539;28;20325;-77
2022/01/12 16:51:56;;;;;;;;;;;;;;;;;;5118255;28;19915;-75
2022/01/12 16:54:22;;;;;;;;;;;;;;;;;;5118521;28;20002;-76
2022/01/12 16:56:47;;;;;;;;;;;;;;;;;;5117198;28;19966;-76
2022/01/12 16:59:13;;;;;;;;;;;;;;;;;;5117111;28;19972;-76
2022/01/12 17:01:38;;;;;;;;;;;;;;;;;;5117194;28;19915;-74
2022/01/12 17:04:03;;;;;;;;;;;;;;;;;;5118429;28;20294;-76
2022/01/12 17:06:29;;;;;;;;;;;;;;;;;;5119957;28;20010;-77
2022/01/12 17:08:54;;;;;;;;;;;;;;;;;;5120457;28;19938;-77
2022/01/12 17:11:19;;;;;;;;;;;;;;;;;;5118454;28;20920;-77
2022/01/12 17:13:47;;;;;;;;;;;;;;;;;;5117431;28;19916;-76
2022/01/12 17:16:15;;;;;;;;;;;;;;;;;;5116943;28;20019;-76
2022/01/12 17:18:53;;;;;;;;;;;;;;;;;;5118138;28;19985;-75
2022/01/12 17:21:18;;;;;;;;;;;;;;;;;;5116668;28;20368;-77
2022/01/12 17:23:47;;;;;;;;;;;;;;;;;;5117930;28;19916;-77
2022/01/12 17:26:14;;;;;;;;;;;;;;;;;;5117189;28;19972;-77
2022/01/12 17:28:39;;;;;;;;;;;;;;;;;;5122228;28;19915;-75
2022/01/12 17:31:05;;;;;;;;;;;;;;;;;;5118562;28;19923;-77
2022/01/12 17:33:30;;;;;;;;;;;;;;;;;;5116847;28;19967;-76
2022/01/12 17:35:56;;;;;;;;;;;;;;;;;;5116111;28;19923;-74
2022/01/12 17:38:21;;;;;;;;;;;;;;;;;;5116369;28;20018;-74
2022/01/12 17:40:48;;;;;;;;;;;;;;;;;;5116454;28;19919;-75
2022/01/12 17:43:20;;;;;;;;;;;;;;;;;;5116303;28;19916;-75
2022/01/12 17:45:45;;;;;;;;;;;;;;;;;;5117433;28;20002;-76
2022/01/12 17:48:19;;;;;;;;;;;;;;;;;;5116416;28;20367;-77
2022/01/12 17:50:44;;;;;;;;;;;;;;;;;;5123449;28;19916;-75
2022/01/12 17:53:09;;;;;;;;;;;;;;;;;;5099226;28;20351;-76
2022/01/12 17:55:35;;;;;;;;;;;;;;;;;;5117029;28;19915;-75
2022/01/12 17:58:00;;;;;;;;;;;;;;;;;;5117278;28;19923;-74
2022/01/12 18:00:27;;;;;;;;;;;;;;;;;;5117111;28;19916;-75
2022/01/12 18:02:53;;;;;;;;;;;;;;;;;;5099148;28;19915;-75
2022/01/12 18:05:18;;;;;;;;;;;;;;;;;;5098678;28;19923;-76
2022/01/12 18:07:44;;;;;;;;;;;;;;;;;;5098804;28;19965;-76
2022/01/12 18:10:10;;;;;;;;;;;;;;;;;;5082361;28;19915;-75
2022/01/12 18:12:35;;;;;;;;;;;;;;;;;;5125047;28;19916;-75
2022/01/12 18:15:00;;;;;;;;;;;;;;;;;;5098734;28;19950;-75
2022/01/12 18:17:26;;;;;;;;;;;;;;;;;;5098738;28;19915;-75
2022/01/12 18:19:53;;;;;;;;;;;;;;;;;;5098541;28;20324;-74
2022/01/12 18:22:20;;;;;;;;;;;;;;;;;;5098410;28;20276;-76
2022/01/12 18:24:45;;;;;;;;;;;;;;;;;;5098442;28;19954;-76
2022/01/12 18:27:11;;;;;;;;;;;;;;;;;;5116576;28;20314;-77
2022/01/12 18:29:36;;;;;;;;;;;;;;;;;;5098491;28;19915;-76
2022/01/12 18:32:02;;;;;;;;;;;;;;;;;;5099695;28;19916;-76
2022/01/12 18:34:27;;;;;;;;;;;;;;;;;;5121402;28;19973;-75